Time;durP1;ratioP1;P1;durP2;ratioP2;P2;SDS_P1;SDS_P2;PMS_P1;PMS_P2;Temp;Humidity;BMP_temperature;BMP_pressure;BME280_temperature;BME280_humidity;BME280_pressure;Samples;Min_cycle;Max_cycle;Signal;HPM_P1;HPM_P2
2023/12/27 00:00:44;;;;;;;12.88;3.03;;;5.20;99.90;;;;;;5062417;28;20226;-45
2023/12/27 00:03:10;;;;;;;18.67;3.35;;;5.20;99.90;;;;;;5062791;28;20190;-40
2023/12/27 00:05:36;;;;;;;12.23;3.08;;;5.20;99.90;;;;;;5059718;28;20198;-41
2023/12/27 00:08:02;;;;;;;16.20;3.33;;;5.10;99.90;;;;;;5062259;28;20670;-43
2023/12/27 00:10:28;;;;;;;18.63;3.80;;;5.10;99.90;;;;;;5061282;28;20662;-43
2023/12/27 00:12:54;;;;;;;16.95;4.00;;;5.10;99.90;;;;;;5060307;28;20264;-39
2023/12/27 00:15:20;;;;;;;14.35;3.25;;;5.10;99.90;;;;;;5062635;28;20221;-40
2023/12/27 00:17:46;;;;;;;13.63;3.05;;;5.10;99.90;;;;;;5077737;28;21295;-40
2023/12/27 00:20:12;;;;;;;22.52;4.28;;;5.10;99.90;;;;;;5061988;28;20211;-39
2023/12/27 00:22:38;;;;;;;18.45;3.78;;;5.00;99.90;;;;;;5060486;28;20312;-41
2023/12/27 00:25:04;;;;;;;14.77;3.40;;;5.00;99.90;;;;;;5062234;28;20263;-42
2023/12/27 00:27:30;;;;;;;20.40;4.10;;;5.00;99.90;;;;;;5061605;28;21436;-42
2023/12/27 00:29:56;;;;;;;12.73;3.45;;;4.90;99.90;;;;;;5060883;28;20190;-38
2023/12/27 00:32:22;;;;;;;23.88;3.97;;;4.90;99.90;;;;;;5062172;28;20282;-39
2023/12/27 00:34:49;;;;;;;19.50;3.63;;;4.90;99.90;;;;;;5059754;28;20718;-42
2023/12/27 00:37:16;;;;;;;13.50;3.10;;;4.90;99.90;;;;;;5078172;28;20186;-42
2023/12/27 00:39:44;;;;;;;18.42;3.65;;;4.90;99.90;;;;;;5061713;28;20227;-41
2023/12/27 00:42:10;;;;;;;17.73;3.05;;;4.90;99.90;;;;;;5081358;28;20303;-38
2023/12/27 00:44:37;;;;;;;18.27;3.05;;;4.90;99.90;;;;;;5066885;28;20279;-40
2023/12/27 00:47:03;;;;;;;16.42;3.95;;;4.90;99.90;;;;;;5064941;28;20213;-42
2023/12/27 00:49:28;;;;;;;16.15;3.53;;;4.90;99.90;;;;;;5063593;28;20264;-41
2023/12/27 00:51:55;;;;;;;15.20;3.63;;;4.90;99.90;;;;;;5066634;28;20183;-41
2023/12/27 00:54:21;;;;;;;15.23;3.90;;;4.90;99.90;;;;;;5064146;28;20191;-40
2023/12/27 00:56:49;;;;;;;13.23;3.28;;;4.80;99.90;;;;;;5064034;28;20278;-42
2023/12/27 00:59:15;;;;;;;14.38;3.30;;;4.90;99.90;;;;;;5065833;28;20187;-42
2023/12/27 01:01:43;;;;;;;14.80;3.15;;;4.80;99.90;;;;;;5062540;28;20213;-40
2023/12/27 01:04:09;;;;;;;16.65;3.30;;;4.90;99.90;;;;;;5064792;28;20178;-44
2023/12/27 01:06:35;;;;;;;12.30;2.90;;;4.80;99.90;;;;;;5081953;28;20221;-41
2023/12/27 01:09:01;;;;;;;16.30;3.08;;;4.80;99.90;;;;;;5079947;28;20218;-41
2023/12/27 01:11:27;;;;;;;10.23;3.28;;;4.80;99.90;;;;;;5059329;28;20911;-41
2023/12/27 01:13:53;;;;;;;12.35;2.72;;;4.70;99.90;;;;;;5064566;28;20241;-45
2023/12/27 01:16:19;;;;;;;13.70;3.55;;;4.70;99.90;;;;;;5062785;28;20655;-44
2023/12/27 01:18:45;;;;;;;13.88;3.38;;;4.70;99.90;;;;;;5062863;28;20195;-42
2023/12/27 01:21:13;;;;;;;15.55;3.38;;;4.70;99.90;;;;;;5064877;28;20194;-38
2023/12/27 01:23:40;;;;;;;20.50;3.33;;;4.70;99.90;;;;;;5062766;28;20749;-41
2023/12/27 01:26:06;;;;;;;16.35;3.53;;;4.70;99.90;;;;;;5064969;28;21021;-40
2023/12/27 01:28:32;;;;;;;16.48;3.75;;;4.60;99.90;;;;;;5065414;28;20186;-41
2023/12/27 01:30:59;;;;;;;19.48;3.80;;;4.60;99.90;;;;;;5063136;28;20658;-40
2023/12/27 01:33:24;;;;;;;16.05;3.63;;;4.60;99.90;;;;;;5062017;28;20259;-41
2023/12/27 01:35:50;;;;;;;12.40;3.20;;;4.60;99.90;;;;;;5065361;28;20195;-44
2023/12/27 01:38:18;;;;;;;13.70;3.83;;;4.60;99.90;;;;;;5064422;28;20333;-44
2023/12/27 01:40:53;;;;;;;13.30;3.53;;;4.60;99.90;;;;;;5064113;28;20269;-42
2023/12/27 01:43:19;;;;;;;12.38;3.08;;;4.60;99.90;;;;;;5064270;28;21313;-45
2023/12/27 01:45:47;;;;;;;15.05;3.58;;;4.60;99.90;;;;;;5062505;28;20229;-42
2023/12/27 01:48:13;;;;;;;15.38;3.47;;;4.60;99.90;;;;;;5064710;28;20645;-40
2023/12/27 01:50:39;;;;;;;13.77;3.80;;;4.50;99.90;;;;;;5062325;28;20265;-43
2023/12/27 01:53:08;;;;;;;19.63;3.90;;;4.50;99.90;;;;;;5063492;28;20190;-40
2023/12/27 01:55:34;;;;;;;17.42;3.95;;;4.50;99.90;;;;;;5063905;28;20187;-40
2023/12/27 01:58:01;;;;;;;15.73;3.47;;;4.50;99.90;;;;;;5046888;28;20194;-40
2023/12/27 02:00:27;;;;;;;12.50;3.40;;;4.50;99.90;;;;;;5045819;28;20199;-39
2023/12/27 02:02:53;;;;;;;17.33;3.45;;;4.50;99.90;;;;;;5061831;28;20236;-41
2023/12/27 02:05:19;;;;;;;12.32;3.53;;;4.50;99.90;;;;;;5058339;28;20249;-44
2023/12/27 02:07:45;;;;;;;18.85;3.38;;;4.40;99.90;;;;;;5046338;28;20175;-44
2023/12/27 02:10:12;;;;;;;13.70;3.35;;;4.40;99.90;;;;;;5061821;28;20194;-41
2023/12/27 02:12:38;;;;;;;13.52;3.72;;;4.40;99.90;;;;;;5077951;28;20198;-41
2023/12/27 02:15:04;;;;;;;15.00;4.30;;;4.40;99.90;;;;;;5064278;28;20196;-40
2023/12/27 02:17:32;;;;;;;11.13;3.45;;;4.40;99.90;;;;;;5064300;28;20198;-39
2023/12/27 02:19:59;;;;;;;17.05;3.50;;;4.40;99.90;;;;;;5060373;28;20277;-39
2023/12/27 02:22:27;;;;;;;15.07;3.50;;;4.30;99.90;;;;;;5063665;28;20601;-38
2023/12/27 02:24:54;;;;;;;17.92;3.55;;;4.30;99.90;;;;;;5063806;28;20245;-40
2023/12/27 02:27:21;;;;;;;15.15;3.30;;;4.30;99.90;;;;;;5078067;28;20186;-39
2023/12/27 02:29:46;;;;;;;20.67;3.28;;;4.30;99.90;;;;;;5061943;28;20183;-42
2023/12/27 02:32:12;;;;;;;15.25;3.50;;;4.30;99.90;;;;;;5063948;28;20217;-41
2023/12/27 02:34:38;;;;;;;16.30;3.33;;;4.30;99.90;;;;;;5062006;28;20182;-39
2023/12/27 02:37:04;;;;;;;17.80;4.22;;;4.30;99.90;;;;;;5062544;28;20655;-42
2023/12/27 02:39:30;;;;;;;13.77;3.08;;;4.30;99.90;;;;;;5062141;28;20214;-39
2023/12/27 02:41:56;;;;;;;12.68;3.13;;;4.30;99.90;;;;;;5078664;28;20224;-41
2023/12/27 02:44:26;;;;;;;18.20;3.75;;;4.30;99.90;;;;;;5061969;28;20194;-39
2023/12/27 02:46:55;;;;;;;16.85;3.28;;;4.30;99.90;;;;;;5078766;28;20654;-42
2023/12/27 02:49:21;;;;;;;21.70;3.70;;;4.20;99.90;;;;;;5061556;28;20193;-40
2023/12/27 02:51:50;;;;;;;14.90;3.63;;;4.20;99.90;;;;;;5062674;28;20182;-46
2023/12/27 02:54:16;;;;;;;17.58;3.38;;;4.20;99.90;;;;;;5060745;28;20191;-40
2023/12/27 02:56:41;;;;;;;20.48;3.65;;;4.20;99.90;;;;;;5062536;28;20205;-42
2023/12/27 02:59:10;;;;;;;16.33;3.70;;;4.20;99.90;;;;;;5062482;28;20273;-41
2023/12/27 03:01:36;;;;;;;13.90;3.35;;;4.20;99.90;;;;;;5077771;28;20202;-40
2023/12/27 03:04:02;;;;;;;14.60;3.78;;;4.30;99.90;;;;;;5060888;28;20988;-42
2023/12/27 03:06:28;;;;;;;22.25;4.18;;;4.20;99.90;;;;;;5044994;28;20210;-43
2023/12/27 03:08:53;;;;;;;19.88;3.97;;;4.20;99.90;;;;;;5061095;28;20648;-37
2023/12/27 03:11:20;;;;;;;18.40;3.75;;;4.30;99.90;;;;;;5062402;28;20359;-46
2023/12/27 03:13:46;;;;;;;20.30;3.83;;;4.30;99.90;;;;;;5061383;28;20194;-43
2023/12/27 03:16:12;;;;;;;15.32;3.88;;;4.30;99.90;;;;;;5061727;28;20197;-42
2023/12/27 03:18:39;;;;;;;14.73;3.60;;;4.30;99.90;;;;;;5078279;28;20199;-40
2023/12/27 03:21:04;;;;;;;16.42;3.63;;;4.40;99.90;;;;;;5063284;28;20257;-42
2023/12/27 03:23:30;;;;;;;17.90;3.65;;;4.40;99.90;;;;;;5061773;28;20733;-43
2023/12/27 03:25:56;;;;;;;11.88;3.80;;;4.40;99.90;;;;;;5060429;28;20325;-43
2023/12/27 03:28:23;;;;;;;18.02;3.38;;;4.40;99.90;;;;;;5062577;28;20209;-38
2023/12/27 03:30:50;;;;;;;21.13;3.53;;;4.40;99.90;;;;;;5043657;28;20185;-43
2023/12/27 03:33:18;;;;;;;11.93;3.10;;;4.40;99.90;;;;;;5060489;28;20193;-39
2023/12/27 03:35:44;;;;;;;17.48;3.90;;;4.50;99.90;;;;;;5059484;28;20190;-41
2023/12/27 03:38:10;;;;;;;15.02;3.25;;;4.50;99.90;;;;;;5076797;28;20333;-41
2023/12/27 03:40:36;;;;;;;19.10;3.50;;;4.60;99.90;;;;;;5061715;28;20210;-42
2023/12/27 03:43:02;;;;;;;20.30;3.40;;;4.60;99.90;;;;;;5060763;28;20218;-43
2023/12/27 03:45:27;;;;;;;15.68;3.70;;;4.50;99.90;;;;;;5060603;28;20214;-41
2023/12/27 03:47:53;;;;;;;13.60;3.10;;;4.60;99.90;;;;;;5062027;28;20607;-41
2023/12/27 03:50:19;;;;;;;15.07;3.65;;;4.60;99.90;;;;;;5062925;28;20546;-40
2023/12/27 03:52:45;;;;;;;15.93;3.60;;;4.60;99.90;;;;;;5060345;28;20190;-41
2023/12/27 03:55:11;;;;;;;17.17;3.47;;;4.60;99.90;;;;;;5059813;28;20221;-41
2023/12/27 03:57:37;;;;;;;19.90;3.72;;;4.60;99.90;;;;;;5062366;28;20228;-42
2023/12/27 04:00:05;;;;;;;17.05;3.80;;;4.60;99.90;;;;;;5077785;28;20190;-39
2023/12/27 04:02:33;;;;;;;14.88;3.60;;;4.60;99.90;;;;;;5060852;28;20740;-46
2023/12/27 04:04:59;;;;;;;15.30;3.25;;;4.70;99.90;;;;;;5049292;28;20297;-42
2023/12/27 04:07:25;;;;;;;12.48;3.40;;;4.60;99.90;;;;;;5049321;28;20636;-40
2023/12/27 04:09:51;;;;;;;12.90;3.17;;;4.60;99.90;;;;;;5061770;28;20182;-38
2023/12/27 04:12:17;;;;;;;15.63;3.58;;;4.70;99.90;;;;;;5061302;28;20190;-40
2023/12/27 04:14:43;;;;;;;16.63;3.58;;;4.60;99.90;;;;;;5044839;28;20194;-45
2023/12/27 04:17:09;;;;;;;15.43;3.83;;;4.60;99.90;;;;;;5067712;28;20194;-41
2023/12/27 04:19:35;;;;;;;18.63;3.60;;;4.60;99.90;;;;;;5064083;28;20186;-41
2023/12/27 04:22:01;;;;;;;10.73;3.72;;;4.60;99.90;;;;;;5065550;28;20252;-41
2023/12/27 04:24:27;;;;;;;24.13;3.97;;;4.60;99.90;;;;;;5047834;28;20596;-45
2023/12/27 04:26:53;;;;;;;11.55;3.70;;;4.60;99.90;;;;;;5064256;28;20266;-41
2023/12/27 04:29:19;;;;;;;22.25;3.80;;;4.60;99.90;;;;;;5065260;28;20198;-40
2023/12/27 04:31:45;;;;;;;15.45;3.72;;;4.70;99.90;;;;;;5066467;28;20195;-44
2023/12/27 04:34:11;;;;;;;16.92;3.60;;;4.60;99.90;;;;;;5063704;28;20179;-41
2023/12/27 04:36:37;;;;;;;15.57;3.58;;;4.60;99.90;;;;;;5064625;28;20686;-39
2023/12/27 04:39:03;;;;;;;17.95;3.08;;;4.60;99.90;;;;;;5065454;28;20215;-42
2023/12/27 04:41:29;;;;;;;15.73;3.45;;;4.70;99.90;;;;;;5065141;28;20187;-41
2023/12/27 04:43:55;;;;;;;20.60;4.03;;;4.60;99.90;;;;;;5064448;28;20213;-46
2023/12/27 04:46:21;;;;;;;16.35;3.53;;;4.70;99.90;;;;;;5063117;28;20218;-41
2023/12/27 04:48:47;;;;;;;11.27;3.60;;;4.60;99.90;;;;;;5063121;28;20643;-40
2023/12/27 04:51:13;;;;;;;13.32;3.22;;;4.70;99.90;;;;;;5065593;28;20548;-40
2023/12/27 04:53:39;;;;;;;19.08;3.63;;;4.60;99.90;;;;;;5064778;28;20187;-41
2023/12/27 04:56:05;;;;;;;15.35;3.88;;;4.70;99.90;;;;;;5062572;28;20199;-47
2023/12/27 04:58:35;;;;;;;15.68;4.00;;;4.60;99.90;;;;;;5064281;28;20250;-44
2023/12/27 05:01:06;;;;;;;14.30;3.67;;;4.60;99.90;;;;;;5082134;28;20677;-42
2023/12/27 05:03:37;;;;;;;15.45;4.30;;;4.60;99.90;;;;;;5050954;28;20609;-40
2023/12/27 05:06:06;;;;;;;22.13;3.97;;;4.60;99.90;;;;;;5064890;28;20249;-44
2023/12/27 05:08:32;;;;;;;15.98;4.15;;;4.60;99.90;;;;;;5082627;28;20270;-44
2023/12/27 05:10:58;;;;;;;14.30;3.90;;;4.50;99.90;;;;;;5062730;28;20722;-41
2023/12/27 05:13:24;;;;;;;16.25;4.28;;;4.50;99.90;;;;;;5062500;28;20217;-39
2023/12/27 05:15:50;;;;;;;12.00;3.80;;;4.60;99.90;;;;;;5065516;28;20735;-41
2023/12/27 05:18:16;;;;;;;23.73;4.18;;;4.50;99.90;;;;;;5064805;28;20191;-41
2023/12/27 05:20:41;;;;;;;17.20;4.13;;;4.60;99.90;;;;;;5063883;28;20527;-43
2023/12/27 05:23:07;;;;;;;16.15;4.65;;;4.50;99.90;;;;;;5064987;28;20229;-40
2023/12/27 05:25:33;;;;;;;21.02;3.97;;;4.50;99.90;;;;;;5064790;28;20690;-41
2023/12/27 05:27:59;;;;;;;14.95;4.07;;;4.50;99.90;;;;;;5064309;28;20186;-39
2023/12/27 05:30:25;;;;;;;15.85;4.10;;;4.50;99.90;;;;;;5063413;28;20673;-37
2023/12/27 05:32:51;;;;;;;18.10;4.90;;;4.60;99.90;;;;;;5063536;28;20264;-40
2023/12/27 05:35:17;;;;;;;15.35;4.50;;;4.50;99.90;;;;;;5063800;28;20212;-45
2023/12/27 05:37:42;;;;;;;24.05;5.53;;;4.60;99.90;;;;;;5079520;28;20190;-41
2023/12/27 05:40:09;;;;;;;25.40;5.22;;;4.60;99.90;;;;;;5063674;28;20208;-41
2023/12/27 05:42:35;;;;;;;20.35;4.88;;;4.60;99.90;;;;;;5065185;28;20194;-40
2023/12/27 05:45:01;;;;;;;21.50;4.28;;;4.60;99.90;;;;;;5078370;28;20226;-43
2023/12/27 05:47:26;;;;;;;15.82;4.63;;;4.60;99.90;;;;;;5060435;28;20277;-39
2023/12/27 05:49:52;;;;;;;23.75;5.35;;;4.60;99.90;;;;;;5065057;28;20277;-39
2023/12/27 05:52:18;;;;;;;13.40;4.78;;;4.60;99.90;;;;;;5059328;28;20194;-41
2023/12/27 05:54:44;;;;;;;13.85;4.95;;;4.60;99.90;;;;;;5062867;28;20198;-41
2023/12/27 05:57:10;;;;;;;16.15;5.05;;;4.70;99.90;;;;;;5046763;28;20218;-44
2023/12/27 05:59:36;;;;;;;13.07;5.55;;;4.60;99.90;;;;;;5063142;28;20555;-45
2023/12/27 06:02:02;;;;;;;20.95;5.95;;;4.60;99.90;;;;;;5063648;28;20624;-45
2023/12/27 06:04:28;;;;;;;18.55;5.80;;;4.60;99.90;;;;;;5063692;28;20190;-43
2023/12/27 06:06:54;;;;;;;13.98;5.07;;;4.60;99.90;;;;;;5061976;28;20203;-42
2023/12/27 06:09:20;;;;;;;16.80;5.30;;;4.60;99.90;;;;;;5064415;28;20658;-39
2023/12/27 06:11:46;;;;;;;17.25;5.47;;;4.70;99.90;;;;;;5062113;28;20194;-40
2023/12/27 06:14:13;;;;;;;20.75;5.90;;;4.70;99.90;;;;;;5063940;28;20191;-41
2023/12/27 06:16:39;;;;;;;20.77;6.10;;;4.70;99.90;;;;;;5063540;28;20194;-40
2023/12/27 06:19:05;;;;;;;22.98;7.32;;;4.70;99.90;;;;;;5064184;28;20186;-41
2023/12/27 06:21:30;;;;;;;20.33;7.35;;;4.70;99.90;;;;;;5063154;28;20888;-42
2023/12/27 06:23:56;;;;;;;19.08;6.78;;;4.70;99.90;;;;;;5063644;28;20190;-40
2023/12/27 06:26:22;;;;;;;16.38;6.35;;;4.70;99.90;;;;;;5062829;28;20240;-43
2023/12/27 06:28:48;;;;;;;22.50;7.07;;;4.70;99.90;;;;;;5063612;28;20198;-41
2023/12/27 06:31:14;;;;;;;16.15;7.05;;;4.70;99.90;;;;;;5063410;28;20642;-41
2023/12/27 06:33:40;;;;;;;23.02;7.80;;;4.70;99.90;;;;;;5060248;28;20289;-41
2023/12/27 06:36:07;;;;;;;26.05;9.77;;;4.80;99.90;;;;;;5063696;28;20205;-39
2023/12/27 06:38:33;;;;;;;19.63;8.10;;;4.80;99.90;;;;;;5076928;28;20226;-39
2023/12/27 06:41:02;;;;;;;22.60;7.78;;;4.80;99.90;;;;;;5079117;28;20569;-41
2023/12/27 06:43:29;;;;;;;16.05;6.82;;;4.80;99.90;;;;;;5061170;28;20190;-41
2023/12/27 06:45:55;;;;;;;14.55;6.70;;;4.80;99.90;;;;;;5062063;28;20206;-40
2023/12/27 06:48:21;;;;;;;21.42;6.45;;;4.80;99.90;;;;;;5062050;28;20649;-42
2023/12/27 06:50:48;;;;;;;18.75;6.25;;;4.80;99.90;;;;;;5077732;28;20279;-41
2023/12/27 06:53:14;;;;;;;15.05;6.18;;;4.90;99.90;;;;;;5061111;28;20185;-44
2023/12/27 06:55:40;;;;;;;13.55;6.07;;;4.90;99.90;;;;;;5063065;28;20284;-42
2023/12/27 06:58:05;;;;;;;20.60;7.00;;;4.90;99.90;;;;;;5061277;28;20338;-46
2023/12/27 07:00:31;;;;;;;19.83;6.95;;;4.90;99.90;;;;;;5062808;28;20400;-40
2023/12/27 07:02:59;;;;;;;20.60;6.20;;;4.90;99.90;;;;;;5062165;28;20252;-43
2023/12/27 07:05:25;;;;;;;16.60;5.90;;;4.90;99.90;;;;;;5062434;28;20717;-41
2023/12/27 07:07:51;;;;;;;18.42;5.15;;;4.90;99.90;;;;;;5043883;28;20186;-44
2023/12/27 07:10:16;;;;;;;13.23;4.38;;;4.90;99.90;;;;;;5060688;28;20195;-42
2023/12/27 07:12:42;;;;;;;20.23;4.70;;;4.90;99.90;;;;;;5062534;28;20639;-43
2023/12/27 07:15:10;;;;;;;16.02;5.60;;;5.00;99.90;;;;;;5062906;28;20218;-42
2023/12/27 07:17:36;;;;;;;17.45;4.50;;;5.00;99.90;;;;;;5061529;28;20281;-43
2023/12/27 07:20:02;;;;;;;22.90;5.50;;;5.00;99.90;;;;;;5062904;28;20285;-43
2023/12/27 07:22:28;;;;;;;21.70;4.85;;;5.00;99.90;;;;;;5046008;28;20218;-39
2023/12/27 07:24:54;;;;;;;17.38;4.90;;;5.00;99.90;;;;;;5059772;28;20281;-44
2023/12/27 07:27:20;;;;;;;23.65;5.80;;;5.10;99.90;;;;;;5060344;28;20179;-42
2023/12/27 07:29:45;;;;;;;23.00;6.63;;;5.10;99.90;;;;;;5057651;28;20204;-43
2023/12/27 07:32:11;;;;;;;18.88;6.13;;;5.10;99.90;;;;;;5060680;28;20239;-45
2023/12/27 07:34:38;;;;;;;17.88;5.10;;;5.10;99.90;;;;;;5063147;28;20187;-41
2023/12/27 07:37:04;;;;;;;15.40;5.72;;;5.20;99.90;;;;;;5063067;28;20186;-42
2023/12/27 07:39:32;;;;;;;20.00;5.80;;;5.20;99.90;;;;;;5077021;28;20371;-43
2023/12/27 07:41:59;;;;;;;15.05;5.45;;;5.20;99.90;;;;;;5061428;28;20190;-44
2023/12/27 07:44:26;;;;;;;15.60;4.88;;;5.20;99.90;;;;;;5063527;28;20187;-45
2023/12/27 07:46:53;;;;;;;18.40;5.50;;;5.20;99.90;;;;;;5062587;28;20546;-42
2023/12/27 07:49:19;;;;;;;17.05;4.95;;;5.30;99.90;;;;;;5060772;28;20187;-38
2023/12/27 07:51:45;;;;;;;13.05;5.35;;;5.30;99.90;;;;;;5060824;28;20269;-42
2023/12/27 07:54:11;;;;;;;18.83;5.65;;;5.30;99.90;;;;;;5061606;28;20274;-39
2023/12/27 07:56:37;;;;;;;23.10;5.68;;;5.30;99.90;;;;;;5061222;28;20253;-44
2023/12/27 07:59:04;;;;;;;16.52;5.68;;;5.30;99.90;;;;;;5061926;28;20183;-41
2023/12/27 08:01:31;;;;;;;16.20;5.22;;;5.30;99.90;;;;;;5061759;28;20841;-42
2023/12/27 08:03:58;;;;;;;15.48;5.70;;;5.30;99.90;;;;;;5062518;28;20201;-40
2023/12/27 08:06:26;;;;;;;20.25;5.40;;;5.30;99.90;;;;;;5062267;28;20267;-38
2023/12/27 08:08:53;;;;;;;14.48;6.47;;;5.30;99.90;;;;;;5061639;28;20191;-43
2023/12/27 08:11:20;;;;;;;17.30;6.32;;;5.30;99.90;;;;;;5060844;28;20211;-41
2023/12/27 08:13:46;;;;;;;15.57;5.78;;;5.30;99.90;;;;;;5062010;28;20510;-44
2023/12/27 08:16:12;;;;;;;24.77;7.15;;;5.40;99.90;;;;;;5060827;28;20194;-43
2023/12/27 08:18:38;;;;;;;16.77;6.30;;;5.40;99.90;;;;;;5062325;28;20210;-41
2023/12/27 08:21:04;;;;;;;18.13;5.63;;;5.40;99.90;;;;;;5062018;28;20190;-43
2023/12/27 08:23:30;;;;;;;13.82;5.80;;;5.40;99.90;;;;;;5061477;28;20214;-45
2023/12/27 08:25:57;;;;;;;17.02;6.43;;;5.40;99.90;;;;;;5062365;28;21002;-38
2023/12/27 08:28:23;;;;;;;14.13;5.63;;;5.40;99.90;;;;;;5061840;28;20183;-42
2023/12/27 08:30:49;;;;;;;19.67;5.93;;;5.40;99.90;;;;;;5061118;28;20191;-39
2023/12/27 08:33:15;;;;;;;20.45;5.43;;;5.40;99.90;;;;;;5062984;28;20647;-38
2023/12/27 08:35:41;;;;;;;23.48;5.63;;;5.50;99.90;;;;;;5058557;28;20688;-40
2023/12/27 08:38:10;;;;;;;20.52;5.40;;;5.50;99.90;;;;;;5060715;28;20235;-44
2023/12/27 08:40:36;;;;;;;11.07;5.65;;;5.40;99.90;;;;;;5063485;28;20205;-41
2023/12/27 08:43:02;;;;;;;19.30;5.38;;;5.50;99.90;;;;;;5058571;28;20197;-40
2023/12/27 08:45:28;;;;;;;14.70;5.65;;;5.60;99.90;;;;;;5059581;28;20584;-42
2023/12/27 08:47:54;;;;;;;19.65;4.63;;;5.60;99.90;;;;;;5063635;28;20186;-44
2023/12/27 08:50:19;;;;;;;17.67;5.25;;;5.70;99.90;;;;;;5061386;28;20587;-42
2023/12/27 08:52:45;;;;;;;16.35;4.80;;;5.70;99.90;;;;;;5060303;28;20204;-37
2023/12/27 08:55:12;;;;;;;13.88;4.63;;;5.80;99.90;;;;;;5061664;28;20198;-41
2023/12/27 08:57:38;;;;;;;16.63;4.68;;;5.80;99.90;;;;;;5061885;28;20202;-39
2023/12/27 09:00:10;;;;;;;24.25;4.82;;;5.80;99.90;;;;;;5060733;28;20190;-41
2023/12/27 09:02:39;;;;;;;13.77;4.57;;;5.90;99.90;;;;;;5063849;28;20190;-41
2023/12/27 09:05:06;;;;;;;18.02;4.55;;;5.90;99.90;;;;;;5064001;28;20210;-42
2023/12/27 09:07:32;;;;;;;12.95;4.10;;;5.90;99.90;;;;;;5063270;28;20186;-45
2023/12/27 09:09:59;;;;;;;9.65;3.83;;;6.00;99.90;;;;;;5064394;28;20660;-41
2023/12/27 09:12:28;;;;;;;15.68;4.30;;;6.00;99.90;;;;;;5065312;28;20232;-42
2023/12/27 09:14:54;;;;;;;14.57;4.38;;;6.00;99.90;;;;;;5062085;28;20216;-42
2023/12/27 09:17:20;;;;;;;17.40;3.85;;;6.00;99.90;;;;;;5064925;28;20186;-42
2023/12/27 09:19:46;;;;;;;17.08;4.32;;;6.00;99.90;;;;;;5081856;28;20231;-42
2023/12/27 09:22:12;;;;;;;17.75;4.90;;;6.10;99.90;;;;;;5063726;28;20787;-41
2023/12/27 09:24:39;;;;;;;12.50;4.40;;;6.10;99.90;;;;;;5063813;28;20198;-45
2023/12/27 09:27:05;;;;;;;17.40;4.30;;;6.10;99.90;;;;;;5064241;28;20399;-42
2023/12/27 09:29:31;;;;;;;13.20;4.63;;;6.10;99.90;;;;;;5079422;28;20202;-44
2023/12/27 09:31:57;;;;;;;16.73;4.60;;;6.20;99.90;;;;;;5080872;28;20212;-44
2023/12/27 09:34:23;;;;;;;20.13;4.60;;;6.20;99.90;;;;;;5066029;28;20190;-40
2023/12/27 09:36:49;;;;;;;19.90;4.57;;;6.20;99.90;;;;;;5063326;28;20597;-40
2023/12/27 09:39:15;;;;;;;10.70;4.93;;;6.20;99.90;;;;;;5063661;28;20218;-40
2023/12/27 09:41:41;;;;;;;18.52;4.00;;;6.20;99.90;;;;;;5065182;28;20292;-45
2023/12/27 09:44:09;;;;;;;11.07;4.18;;;6.20;99.90;;;;;;5065190;28;20209;-40
2023/12/27 09:46:37;;;;;;;12.52;3.80;;;6.20;99.90;;;;;;5064352;28;20214;-43
2023/12/27 09:49:03;;;;;;;21.40;4.18;;;6.20;99.90;;;;;;5062607;28;20218;-41
2023/12/27 09:51:30;;;;;;;14.18;3.90;;;6.20;99.90;;;;;;5080406;28;20655;-40
2023/12/27 09:53:57;;;;;;;15.50;4.07;;;6.30;99.90;;;;;;5062199;28;20215;-40
2023/12/27 09:56:23;;;;;;;16.60;4.28;;;6.30;99.90;;;;;;5079943;28;20190;-42
2023/12/27 09:58:54;;;;;;;18.85;4.60;;;6.30;99.90;;;;;;5064112;28;20708;-38
2023/12/27 10:01:24;;;;;;;15.73;4.38;;;6.40;99.90;;;;;;5062129;28;20186;-40
2023/12/27 10:03:56;;;;;;;24.25;3.88;;;6.30;99.90;;;;;;5064275;28;20182;-39
2023/12/27 10:06:29;;;;;;;20.65;3.90;;;6.40;99.90;;;;;;5065937;28;20241;-43
2023/12/27 10:08:55;;;;;;;16.10;4.45;;;6.40;99.90;;;;;;5062892;28;20178;-48
2023/12/27 10:11:22;;;;;;;20.52;4.82;;;6.40;99.90;;;;;;5064059;28;20220;-49
2023/12/27 10:13:50;;;;;;;21.73;4.50;;;6.50;99.90;;;;;;5063967;28;20187;-49
2023/12/27 10:16:17;;;;;;;18.45;4.32;;;6.50;99.90;;;;;;5063014;28;20210;-48
2023/12/27 10:18:49;;;;;;;19.42;5.18;;;6.60;99.90;;;;;;5064336;28;20935;-50
2023/12/27 10:21:16;;;;;;;21.63;4.85;;;6.50;99.90;;;;;;5061052;28;20191;-48
2023/12/27 10:23:42;;;;;;;15.73;5.03;;;6.60;99.90;;;;;;5063731;28;20200;-47
2023/12/27 10:26:08;;;;;;;22.77;5.13;;;6.60;99.90;;;;;;5062532;28;20575;-51
2023/12/27 10:28:34;;;;;;;20.35;5.50;;;6.60;99.90;;;;;;5062800;28;20523;-51
2023/12/27 10:31:04;;;;;;;13.80;5.18;;;6.60;99.90;;;;;;5063936;28;20202;-47
2023/12/27 10:33:44;;;;;;;22.83;5.55;;;6.70;99.90;;;;;;5063063;28;20646;-47
2023/12/27 10:36:10;;;;;;;21.75;6.05;;;6.70;99.90;;;;;;5062976;28;20197;-48
2023/12/27 10:38:38;;;;;;;20.70;6.55;;;6.70;99.90;;;;;;5064618;28;20604;-48
2023/12/27 10:41:05;;;;;;;17.98;5.82;;;6.80;99.90;;;;;;5062423;28;20183;-49
2023/12/27 10:43:32;;;;;;;17.73;6.32;;;6.80;99.90;;;;;;5045374;28;20191;-50
2023/12/27 10:45:58;;;;;;;26.85;6.47;;;6.80;99.90;;;;;;5063979;28;20720;-51
2023/12/27 10:48:28;;;;;;;24.95;6.88;;;6.90;99.90;;;;;;5062953;28;20816;-43
2023/12/27 10:50:54;;;;;;;18.60;6.93;;;6.90;99.90;;;;;;5062222;28;20670;-45
2023/12/27 10:53:20;;;;;;;21.58;6.90;;;6.90;99.90;;;;;;5061987;28;20190;-49
2023/12/27 10:55:48;;;;;;;15.25;7.13;;;7.00;99.90;;;;;;5079968;28;20249;-48
2023/12/27 10:58:22;;;;;;;16.10;6.65;;;7.00;99.90;;;;;;5061335;28;20535;-46
2023/12/27 11:00:48;;;;;;;17.15;6.53;;;7.00;99.90;;;;;;5063349;28;20220;-52
2023/12/27 11:03:14;;;;;;;15.68;7.50;;;7.00;99.90;;;;;;5064237;28;20220;-51
2023/12/27 11:05:41;;;;;;;19.45;6.85;;;7.10;99.90;;;;;;5061912;28;20225;-48
2023/12/27 11:08:10;;;;;;;16.48;6.43;;;7.10;99.90;;;;;;5063383;28;20195;-50
2023/12/27 11:10:37;;;;;;;18.00;7.20;;;7.10;99.90;;;;;;5063666;28;20201;-46
2023/12/27 11:13:06;;;;;;;17.67;7.22;;;7.10;99.90;;;;;;5062127;28;20190;-53
2023/12/27 11:15:34;;;;;;;15.95;7.45;;;7.20;99.90;;;;;;5044938;28;20194;-46
2023/12/27 11:18:04;;;;;;;18.92;6.47;;;7.20;99.90;;;;;;5062211;28;20270;-48
2023/12/27 11:20:31;;;;;;;21.90;7.45;;;7.30;99.90;;;;;;5078742;28;20198;-48
2023/12/27 11:22:57;;;;;;;21.95;6.90;;;7.30;99.90;;;;;;5059598;28;20243;-44
2023/12/27 11:25:23;;;;;;;22.15;7.32;;;7.30;99.90;;;;;;5061103;28;21003;-49
2023/12/27 11:27:51;;;;;;;19.88;6.63;;;7.30;99.90;;;;;;5064163;28;20301;-49
2023/12/27 11:30:19;;;;;;;18.60;7.38;;;7.30;99.90;;;;;;5061469;28;20194;-46
2023/12/27 11:32:46;;;;;;;16.95;7.10;;;7.30;99.90;;;;;;5062290;28;20607;-43
2023/12/27 11:35:28;;;;;;;24.30;9.30;;;7.40;99.90;;;;;;5062317;28;20281;-50
2023/12/27 11:38:15;;;;;;;16.98;8.13;;;7.30;99.90;;;;;;5061191;28;20266;-51
2023/12/27 11:40:45;;;;;;;19.33;8.13;;;7.30;99.90;;;;;;5062177;28;20605;-52
2023/12/27 11:43:25;;;;;;;20.25;7.70;;;7.30;99.90;;;;;;5062300;28;21006;-48
2023/12/27 11:45:59;;;;;;;19.65;7.75;;;7.30;99.90;;;;;;5061450;28;20222;-49
2023/12/27 11:48:27;;;;;;;19.17;8.20;;;7.30;99.90;;;;;;5062202;28;20190;-51
2023/12/27 11:50:57;;;;;;;20.98;8.75;;;7.30;99.90;;;;;;5062089;28;20194;-47
2023/12/27 11:53:30;;;;;;;21.33;8.45;;;7.30;99.90;;;;;;5061309;28;20190;-47
2023/12/27 11:55:59;;;;;;;20.85;9.30;;;7.30;99.90;;;;;;5061846;28;20288;-46
2023/12/27 11:58:38;;;;;;;20.92;8.80;;;7.20;99.90;;;;;;5061501;28;20189;-51
2023/12/27 12:01:27;;;;;;;23.42;8.57;;;7.20;99.90;;;;;;5061702;28;20201;-49
2023/12/27 12:04:14;;;;;;;21.42;10.13;;;7.20;99.90;;;;;;5062399;28;20251;-52
2023/12/27 12:06:56;;;;;;;21.20;9.23;;;7.20;99.90;;;;;;5061614;28;20217;-49
2023/12/27 12:09:36;;;;;;;23.08;9.63;;;7.20;99.90;;;;;;5060171;28;20903;-52
2023/12/27 12:12:28;;;;;;;23.33;9.50;;;7.20;99.90;;;;;;5061525;28;20654;-49
2023/12/27 12:14:55;;;;;;;19.52;8.50;;;7.20;99.90;;;;;;5060448;28;20202;-47
2023/12/27 12:17:22;;;;;;;18.60;8.40;;;7.10;99.90;;;;;;5060714;28;20504;-43
2023/12/27 12:19:49;;;;;;;20.70;8.85;;;7.10;99.90;;;;;;5061710;28;20230;-48
2023/12/27 12:22:18;;;;;;;23.27;9.15;;;7.00;99.90;;;;;;5060077;28;20198;-49
2023/12/27 12:24:44;;;;;;;19.90;9.48;;;7.00;99.90;;;;;;5061890;28;20236;-48
2023/12/27 12:27:21;;;;;;;21.60;9.80;;;7.00;99.90;;;;;;5061385;28;20593;-47
2023/12/27 12:29:46;;;;;;;22.33;10.45;;;7.00;99.90;;;;;;5055579;28;20951;-50
2023/12/27 12:32:15;;;;;;;21.70;10.48;;;7.00;99.90;;;;;;5061982;28;20285;-51
2023/12/27 12:34:41;;;;;;;21.27;10.20;;;6.90;99.90;;;;;;5060348;28;20671;-49
2023/12/27 12:37:07;;;;;;;26.27;11.20;;;6.90;99.90;;;;;;5064558;28;20194;-46
2023/12/27 12:39:33;;;;;;;23.95;10.73;;;6.90;99.90;;;;;;5065417;28;20210;-47
2023/12/27 12:41:59;;;;;;;19.90;11.02;;;6.80;99.90;;;;;;5061931;28;20182;-46
2023/12/27 12:44:25;;;;;;;21.95;10.55;;;6.90;99.90;;;;;;5064775;28;20724;-52